Time;durP1;ratioP1;P1;durP2;ratioP2;P2;SDS_P1;SDS_P2;PMS_P1;PMS_P2;Temp;Humidity;BMP_temperature;BMP_pressure;BME280_temperature;BME280_humidity;BME280_pressure;Samples;Min_cycle;Max_cycle;Signal;HPM_P1;HPM_P2
2023/02/23 00:01:11;;;;;;;0.50;0.40;;;9.40;99.90;;;;;;5035986;28;20211;-78
2023/02/23 00:03:39;;;;;;;0.82;0.82;;;9.40;99.90;;;;;;5044169;28;20198;-78
2023/02/23 00:06:07;;;;;;;0.50;0.40;;;9.40;99.90;;;;;;5051931;28;20570;-79
2023/02/23 00:08:35;;;;;;;0.50;0.40;;;9.40;99.90;;;;;;5041451;28;20597;-78
2023/02/23 00:11:04;;;;;;;0.50;0.40;;;9.40;99.90;;;;;;5047284;28;20218;-78
2023/02/23 00:13:36;;;;;;;2.97;2.78;;;9.40;99.90;;;;;;5043121;28;20571;-78
2023/02/23 00:16:05;;;;;;;0.85;0.85;;;9.40;99.90;;;;;;5045372;28;20198;-78
2023/02/23 00:18:43;;;;;;;2.15;2.05;;;9.40;99.90;;;;;;5056418;28;20194;-77
2023/02/23 00:21:13;;;;;;;0.50;0.40;;;9.40;99.90;;;;;;5056252;28;20221;-77
2023/02/23 00:23:41;;;;;;;0.50;0.40;;;9.40;99.90;;;;;;5047545;28;20191;-77
2023/02/23 00:26:08;;;;;;;0.50;0.40;;;9.40;99.90;;;;;;5042460;28;20539;-78
2023/02/23 00:28:36;;;;;;;0.50;0.40;;;9.40;99.90;;;;;;5052601;28;20256;-77
2023/02/23 00:31:04;;;;;;;1.98;1.88;;;9.40;99.90;;;;;;5052773;28;20210;-77
2023/02/23 00:33:31;;;;;;;0.60;0.60;;;9.40;99.90;;;;;;5048052;28;20211;-77
2023/02/23 00:36:04;;;;;;;0.93;0.93;;;9.30;99.90;;;;;;5032923;28;20263;-77
2023/02/23 00:38:34;;;;;;;0.50;0.40;;;9.30;99.90;;;;;;5033023;28;20203;-77
2023/02/23 00:41:06;;;;;;;0.65;0.63;;;9.40;99.90;;;;;;5043672;28;20310;-77
2023/02/23 00:43:36;;;;;;;0.50;0.40;;;9.40;99.90;;;;;;5043007;28;20192;-77
2023/02/23 00:46:05;;;;;;;1.95;1.85;;;9.30;99.90;;;;;;5036428;28;20191;-77
2023/02/23 00:48:32;;;;;;;4.20;4.00;;;9.30;99.90;;;;;;5049339;28;20280;-78
2023/02/23 00:51:00;;;;;;;0.50;0.50;;;9.40;99.90;;;;;;5055870;28;20220;-78
2023/02/23 00:53:27;;;;;;;0.50;0.40;;;9.40;99.90;;;;;;5055293;28;20593;-75
2023/02/23 00:55:55;;;;;;;0.60;0.60;;;9.40;99.90;;;;;;5055223;28;20245;-77
2023/02/23 00:58:22;;;;;;;0.50;0.40;;;9.40;99.90;;;;;;5057474;28;20198;-77
2023/02/23 01:00:50;;;;;;;0.50;0.40;;;9.30;99.90;;;;;;5056751;28;20305;-77
2023/02/23 01:03:17;;;;;;;0.50;0.40;;;9.20;99.90;;;;;;5056475;28;20201;-77
2023/02/23 01:05:48;;;;;;;0.50;0.40;;;9.30;99.90;;;;;;5056808;28;20187;-77
2023/02/23 01:08:15;;;;;;;28.80;27.27;;;9.30;99.90;;;;;;5056599;28;20202;-77
2023/02/23 01:10:43;;;;;;;0.50;0.50;;;9.40;99.90;;;;;;5056394;28;20705;-77
2023/02/23 01:13:10;;;;;;;0.50;0.40;;;9.40;99.90;;;;;;5056300;28;20770;-77
2023/02/23 01:15:42;;;;;;;2.45;2.25;;;9.30;99.90;;;;;;5042983;28;20192;-78
2023/02/23 01:18:11;;;;;;;0.50;0.40;;;9.30;99.90;;;;;;5036691;28;20230;-78
2023/02/23 01:20:40;;;;;;;0.63;0.63;;;9.30;99.90;;;;;;5036966;28;20218;-77
2023/02/23 01:23:08;;;;;;;1.00;0.90;;;9.30;99.90;;;;;;5046822;28;20186;-77
2023/02/23 01:25:35;;;;;;;11.00;2.47;;;9.30;99.90;;;;;;5043799;28;20198;-77
2023/02/23 01:28:02;;;;;;;0.50;0.50;;;9.30;99.90;;;;;;5035753;28;20282;-78
2023/02/23 01:30:29;;;;;;;2.05;1.95;;;9.30;99.90;;;;;;5035444;28;20298;-77
2023/02/23 01:32:56;;;;;;;1.10;1.10;;;9.30;99.90;;;;;;5051990;28;20676;-77
2023/02/23 01:35:24;;;;;;;0.50;0.40;;;9.30;99.90;;;;;;5055681;28;20237;-77
2023/02/23 01:37:51;;;;;;;2.35;2.25;;;9.20;99.90;;;;;;5040257;28;20198;-77
2023/02/23 01:40:27;;;;;;;0.50;0.40;;;9.20;99.90;;;;;;5047229;28;20748;-78
2023/02/23 01:42:55;;;;;;;0.60;0.60;;;9.30;99.90;;;;;;5055941;28;20187;-77
2023/02/23 01:45:27;;;;;;;3.53;3.05;;;9.20;99.90;;;;;;5047400;28;20568;-77
2023/02/23 01:47:56;;;;;;;0.50;0.40;;;9.20;99.90;;;;;;5055288;28;20206;-78
2023/02/23 01:50:29;;;;;;;3.70;3.35;;;9.20;99.90;;;;;;5055239;28;20314;-77
2023/02/23 01:52:58;;;;;;;0.50;0.40;;;9.10;99.90;;;;;;5055616;28;20222;-77
2023/02/23 01:55:28;;;;;;;0.70;0.70;;;9.10;99.90;;;;;;5054993;28;20202;-77
2023/02/23 01:58:01;;;;;;;0.50;0.50;;;9.10;99.90;;;;;;5055611;28;20191;-77
2023/02/23 02:00:30;;;;;;;0.50;0.40;;;9.10;99.90;;;;;;5051624;28;20212;-77
2023/02/23 02:02:59;;;;;;;1.40;1.40;;;9.10;99.90;;;;;;5035344;28;20223;-77
2023/02/23 02:05:28;;;;;;;0.50;0.40;;;9.10;99.90;;;;;;5035003;28;20189;-77
2023/02/23 02:07:58;;;;;;;0.50;0.50;;;9.10;99.90;;;;;;5035045;28;20756;-78
2023/02/23 02:10:46;;;;;;;0.50;0.40;;;9.10;99.90;;;;;;5034948;28;20314;-77
2023/02/23 02:13:19;;;;;;;0.50;0.40;;;9.10;99.90;;;;;;5034990;28;20674;-78
2023/02/23 02:16:11;;;;;;;0.50;0.40;;;9.10;99.90;;;;;;5034747;28;20222;-77
2023/02/23 02:18:52;;;;;;;0.50;0.40;;;9.10;99.90;;;;;;5040106;28;20233;-79
2023/02/23 02:21:48;;;;;;;0.50;0.40;;;9.10;99.90;;;;;;5059754;28;20216;-78
2023/02/23 02:24:51;;;;;;;0.50;0.40;;;9.10;99.90;;;;;;5058455;28;20191;-77
2023/02/23 02:27:32;;;;;;;0.50;0.40;;;9.10;99.90;;;;;;5056934;28;20206;-79
2023/02/23 02:30:39;;;;;;;0.50;0.40;;;9.10;99.90;;;;;;5058498;28;20214;-79
2023/02/23 02:33:44;;;;;;;0.60;0.60;;;9.10;99.90;;;;;;5052711;28;20217;-78
2023/02/23 02:36:56;;;;;;;0.93;0.93;;;9.10;99.90;;;;;;5054713;28;20225;-78
2023/02/23 02:39:35;;;;;;;1.35;1.35;;;9.10;99.90;;;;;;5053370;28;20230;-77
2023/02/23 02:42:16;;;;;;;0.80;0.80;;;9.10;99.90;;;;;;5054628;28;20187;-77
2023/02/23 02:44:53;;;;;;;0.70;0.70;;;9.10;99.90;;;;;;5055755;28;20187;-78
2023/02/23 02:47:25;;;;;;;0.50;0.40;;;9.10;99.90;;;;;;5055626;28;20201;-78
2023/02/23 02:50:01;;;;;;;0.50;0.40;;;9.10;99.90;;;;;;5041407;28;20571;-78
2023/02/23 02:52:34;;;;;;;1.27;1.23;;;9.00;99.90;;;;;;5035636;28;20224;-78
2023/02/23 02:55:10;;;;;;;0.50;0.50;;;9.00;99.90;;;;;;5051226;28;20792;-79
2023/02/23 02:57:39;;;;;;;0.50;0.40;;;9.10;99.90;;;;;;5054961;28;20230;-78
2023/02/23 04:18:36;;;;;;;0.50;0.40;;;8.90;99.90;;;;;;5033261;28;20191;-79
2023/02/23 04:21:03;;;;;;;0.65;0.65;;;8.90;99.90;;;;;;5043528;28;20302;-79
2023/02/23 04:23:31;;;;;;;3.80;3.60;;;8.90;99.90;;;;;;5042328;28;20255;-79
2023/02/23 04:25:58;;;;;;;0.50;0.40;;;8.90;99.90;;;;;;5041950;28;20218;-78
2023/02/23 04:28:27;;;;;;;2.45;2.35;;;9.00;99.90;;;;;;5043059;28;20230;-78
2023/02/23 04:30:54;;;;;;;0.50;0.50;;;9.00;99.90;;;;;;5041587;28;20219;-78
2023/02/23 04:33:22;;;;;;;0.50;0.40;;;9.00;99.90;;;;;;5039782;28;20250;-77
2023/02/23 04:35:52;;;;;;;5.28;3.08;;;9.00;99.90;;;;;;5040536;28;20260;-78
2023/02/23 04:38:19;;;;;;;0.50;0.50;;;9.00;99.90;;;;;;5040726;28;20291;-78
2023/02/23 04:40:46;;;;;;;0.50;0.40;;;9.00;99.90;;;;;;5039166;28;20298;-78
2023/02/23 04:43:13;;;;;;;0.50;0.40;;;8.90;99.90;;;;;;5039708;28;20195;-78
2023/02/23 04:45:40;;;;;;;0.50;0.40;;;8.90;99.90;;;;;;5035290;28;20188;-78
2023/02/23 04:48:08;;;;;;;0.50;0.40;;;8.90;99.90;;;;;;5036792;28;20259;-78
2023/02/23 04:50:35;;;;;;;0.50;0.40;;;8.90;99.90;;;;;;5039266;28;20215;-78
2023/02/23 04:53:03;;;;;;;1.25;1.25;;;8.90;99.90;;;;;;5040533;28;20207;-77
2023/02/23 04:55:31;;;;;;;0.50;0.40;;;8.90;99.90;;;;;;5038942;28;20195;-81
2023/02/23 04:58:00;;;;;;;0.50;0.40;;;8.90;99.90;;;;;;5040191;28;20253;-78
2023/02/23 05:00:28;;;;;;;0.50;0.40;;;8.90;99.90;;;;;;5040737;28;20222;-79
2023/02/23 05:02:55;;;;;;;2.58;2.47;;;8.90;99.90;;;;;;5038453;28;20224;-78
2023/02/23 05:05:22;;;;;;;0.50;0.38;;;8.90;99.90;;;;;;5043906;28;20694;-79
2023/02/23 05:07:49;;;;;;;0.50;0.40;;;8.90;99.90;;;;;;5046064;28;20187;-79
2023/02/23 05:10:17;;;;;;;0.50;0.40;;;8.90;99.90;;;;;;5044743;28;20258;-79
2023/02/23 05:12:45;;;;;;;0.50;0.40;;;8.90;99.90;;;;;;5036965;28;20234;-80
2023/02/23 05:15:12;;;;;;;2.80;1.48;;;8.90;99.90;;;;;;5043892;28;20199;-79
2023/02/23 05:17:41;;;;;;;0.57;0.55;;;8.90;99.90;;;;;;5043774;28;20259;-79
2023/02/23 05:20:09;;;;;;;0.50;0.40;;;8.90;99.90;;;;;;5042863;28;20220;-79
2023/02/23 05:22:36;;;;;;;0.50;0.40;;;8.90;99.90;;;;;;5044114;28;20790;-79
2023/02/23 05:25:03;;;;;;;0.50;0.40;;;8.90;99.90;;;;;;5044029;28;20195;-79
2023/02/23 05:27:33;;;;;;;0.50;0.40;;;8.90;99.90;;;;;;5042384;28;20211;-79
2023/02/23 05:30:00;;;;;;;0.52;0.50;;;8.90;99.90;;;;;;5043122;28;20670;-79
2023/02/23 05:32:27;;;;;;;0.50;0.40;;;8.90;99.90;;;;;;5043029;28;20203;-80
2023/02/23 05:34:54;;;;;;;0.50;0.40;;;8.90;99.90;;;;;;5044389;28;20410;-79
2023/02/23 05:37:21;;;;;;;1.85;1.75;;;8.90;99.90;;;;;;5035079;28;20219;-80
2023/02/23 05:39:47;;;;;;;1.33;1.25;;;8.90;99.90;;;;;;5044141;28;20298;-79
2023/02/23 05:42:14;;;;;;;8.18;7.75;;;8.90;99.90;;;;;;5045373;28;20227;-79
2023/02/23 05:44:43;;;;;;;0.50;0.40;;;8.90;99.90;;;;;;5045133;28;20230;-79
2023/02/23 05:47:10;;;;;;;0.50;0.40;;;8.80;99.90;;;;;;5038098;28;20227;-81
2023/02/23 05:49:37;;;;;;;0.60;0.60;;;8.80;99.90;;;;;;5045938;28;20195;-79
2023/02/23 05:52:04;;;;;;;0.70;0.70;;;8.80;99.90;;;;;;5047612;28;20286;-81
2023/02/23 05:54:31;;;;;;;0.50;0.40;;;8.80;99.90;;;;;;5038274;28;20269;-79
2023/02/23 05:56:58;;;;;;;0.50;0.40;;;8.80;99.90;;;;;;5046344;28;20270;-77
2023/02/23 05:59:25;;;;;;;0.60;0.60;;;8.80;99.90;;;;;;5037107;28;20215;-80
2023/02/23 06:01:54;;;;;;;0.50;0.40;;;8.80;99.90;;;;;;5045776;28;20218;-77
2023/02/23 06:04:22;;;;;;;0.90;0.90;;;8.70;99.90;;;;;;5045513;28;20215;-80
2023/02/23 06:06:49;;;;;;;0.50;0.40;;;8.80;99.90;;;;;;5041750;28;20283;-79
2023/02/23 06:09:15;;;;;;;0.50;0.30;;;8.80;99.90;;;;;;5051360;28;20206;-79
2023/02/23 06:11:43;;;;;;;0.50;0.40;;;8.70;99.90;;;;;;5056310;28;20206;-80
2023/02/23 06:14:10;;;;;;;0.50;0.40;;;8.60;99.90;;;;;;5055574;28;20322;-78
2023/02/23 06:16:38;;;;;;;0.50;0.40;;;8.70;99.90;;;;;;5048422;28;20171;-80
2023/02/23 06:19:06;;;;;;;0.50;0.40;;;8.70;99.90;;;;;;5056177;28;20493;-79
2023/02/23 06:21:33;;;;;;;2.35;2.15;;;8.70;99.90;;;;;;5054040;28;20223;-79
2023/02/23 06:24:01;;;;;;;0.65;0.63;;;8.60;99.90;;;;;;5037500;28;20188;-79
2023/02/23 06:26:28;;;;;;;0.50;0.40;;;8.60;99.90;;;;;;5033982;28;20199;-80
2023/02/23 06:28:55;;;;;;;2.05;1.85;;;8.70;99.90;;;;;;5040489;28;20219;-80
2023/02/23 06:31:23;;;;;;;0.75;0.75;;;8.60;99.90;;;;;;5041172;28;20217;-79
2023/02/23 06:33:52;;;;;;;0.60;0.50;;;8.60;99.90;;;;;;5035676;28;20215;-82
2023/02/23 06:36:20;;;;;;;0.50;0.40;;;8.70;99.90;;;;;;5048520;28;20543;-81
2023/02/23 06:38:47;;;;;;;0.50;0.40;;;8.70;99.90;;;;;;5051178;28;20245;-81
2023/02/23 06:41:14;;;;;;;0.50;0.40;;;8.70;99.90;;;;;;5055351;28;20219;-81
2023/02/23 06:43:41;;;;;;;0.57;0.57;;;8.70;99.90;;;;;;5056065;28;20226;-82
2023/02/23 06:46:08;;;;;;;0.50;0.40;;;8.60;99.90;;;;;;5054342;28;20199;-80
2023/02/23 06:48:35;;;;;;;0.60;0.40;;;8.70;99.90;;;;;;5055818;28;20218;-81
2023/02/23 06:51:02;;;;;;;0.50;0.40;;;8.70;99.90;;;;;;5054173;28;20242;-82
2023/02/23 06:53:30;;;;;;;0.50;0.40;;;8.70;99.90;;;;;;5054398;28;20218;-81
2023/02/23 06:55:57;;;;;;;1.85;1.75;;;8.60;99.90;;;;;;5047145;28;20218;-77
2023/02/23 06:58:24;;;;;;;0.68;0.68;;;8.70;99.90;;;;;;5040448;28;20195;-78
2023/02/23 07:00:53;;;;;;;0.73;0.73;;;8.60;99.90;;;;;;5042262;28;20247;-77
2023/02/23 07:03:20;;;;;;;0.50;0.40;;;8.60;99.90;;;;;;5041975;28;20219;-77
2023/02/23 07:05:46;;;;;;;2.55;0.85;;;8.60;99.90;;;;;;5041486;28;20219;-78
2023/02/23 07:08:13;;;;;;;1.60;1.50;;;8.60;99.90;;;;;;5040106;28;20659;-80
2023/02/23 07:10:42;;;;;;;1.70;1.35;;;8.70;99.90;;;;;;5040469;28;20225;-80
2023/02/23 07:13:09;;;;;;;1.90;1.80;;;8.70;99.90;;;;;;5040470;28;20306;-81
2023/02/23 07:15:36;;;;;;;2.40;2.30;;;8.70;99.90;;;;;;5042314;28;20214;-82
2023/02/23 07:18:03;;;;;;;0.55;0.55;;;8.70;99.90;;;;;;5043515;28;20191;-81
2023/02/23 07:20:31;;;;;;;3.53;1.15;;;8.80;99.90;;;;;;5042314;28;20581;-80
2023/02/23 07:22:59;;;;;;;13.13;6.57;;;8.80;99.90;;;;;;5042843;28;20195;-81
2023/02/23 07:25:26;;;;;;;0.50;0.40;;;8.80;99.90;;;;;;5042498;28;20250;-81
2023/02/23 07:27:54;;;;;;;0.50;0.40;;;8.80;99.90;;;;;;5042142;28;20218;-79
2023/02/23 07:30:23;;;;;;;0.50;0.38;;;8.70;99.90;;;;;;5045853;28;20226;-81
2023/02/23 07:32:50;;;;;;;0.50;0.40;;;8.70;99.90;;;;;;5055303;28;20195;-78
2023/02/23 07:35:17;;;;;;;1.40;1.40;;;8.70;99.90;;;;;;5038269;28;20226;-77
2023/02/23 07:37:44;;;;;;;0.70;0.70;;;8.80;99.90;;;;;;5042884;28;20278;-78
2023/02/23 07:40:12;;;;;;;1.23;1.13;;;8.70;99.90;;;;;;5042351;28;20281;-80
2023/02/23 07:42:39;;;;;;;1.65;1.65;;;8.70;99.90;;;;;;5040275;28;20199;-78
2023/02/23 07:45:09;;;;;;;3.13;1.60;;;8.70;99.90;;;;;;5041477;28;20270;-79
2023/02/23 07:47:37;;;;;;;3.25;1.08;;;8.70;99.90;;;;;;5039620;28;20638;-80
2023/02/23 07:50:08;;;;;;;0.50;0.40;;;8.60;99.90;;;;;;5041557;28;20202;-81
2023/02/23 07:52:35;;;;;;;0.60;0.55;;;8.60;99.90;;;;;;5039859;28;20203;-80
2023/02/23 07:55:02;;;;;;;9.25;5.35;;;8.60;99.90;;;;;;5039516;28;20207;-80
2023/02/23 07:57:29;;;;;;;1.15;1.15;;;8.60;99.90;;;;;;5039406;28;20219;-80
2023/02/23 07:59:56;;;;;;;0.50;0.50;;;8.50;99.90;;;;;;5042211;28;20191;-80
2023/02/23 08:02:24;;;;;;;3.95;3.45;;;8.50;99.90;;;;;;5040882;28;20738;-80
2023/02/23 08:04:53;;;;;;;0.50;0.40;;;8.50;99.90;;;;;;5032616;28;20274;-80
2023/02/23 08:07:20;;;;;;;4.40;4.20;;;8.40;99.90;;;;;;5042975;28;20223;-80
2023/02/23 08:09:48;;;;;;;2.25;2.15;;;8.40;99.90;;;;;;5034923;28;20222;-82
2023/02/23 08:12:15;;;;;;;2.10;2.05;;;8.40;99.90;;;;;;5040440;28;20207;-81
2023/02/23 08:14:42;;;;;;;0.50;0.50;;;8.50;99.90;;;;;;5042834;28;20316;-80
2023/02/23 08:17:09;;;;;;;2.15;2.05;;;8.40;99.90;;;;;;5040225;28;20544;-81
2023/02/23 08:19:37;;;;;;;2.47;2.17;;;8.30;99.90;;;;;;5041708;28;20579;-79
2023/02/23 08:22:05;;;;;;;0.65;0.65;;;8.30;99.90;;;;;;5041704;28;20284;-81
2023/02/23 08:24:32;;;;;;;0.50;0.40;;;8.40;99.90;;;;;;5040458;28;20249;-81
2023/02/23 08:26:59;;;;;;;0.60;0.60;;;8.40;99.90;;;;;;5039627;28;20198;-80
2023/02/23 08:29:25;;;;;;;0.50;0.50;;;8.40;99.90;;;;;;5039442;28;20195;-80
2023/02/23 08:31:52;;;;;;;0.50;0.40;;;8.50;99.90;;;;;;5038220;28;20215;-77
2023/02/23 08:34:21;;;;;;;0.50;0.40;;;8.50;99.90;;;;;;5040033;28;20293;-80
2023/02/23 08:36:49;;;;;;;1.48;1.38;;;8.60;99.90;;;;;;5036555;28;20231;-81
2023/02/23 08:39:16;;;;;;;3.72;3.53;;;8.60;99.90;;;;;;5035818;28;20268;-81
2023/02/23 08:41:43;;;;;;;0.50;0.40;;;8.60;99.90;;;;;;5040854;28;20275;-80
2023/02/23 08:44:10;;;;;;;0.50;0.40;;;8.60;99.90;;;;;;5040901;28;20198;-80
2023/02/23 08:46:37;;;;;;;0.90;0.90;;;8.60;99.90;;;;;;5040499;28;20571;-80
2023/02/23 08:49:09;;;;;;;0.50;0.40;;;8.70;99.90;;;;;;5039844;28;20278;-78
2023/02/23 08:51:36;;;;;;;11.10;2.50;;;8.70;99.90;;;;;;5040174;28;20658;-81
2023/02/23 08:54:08;;;;;;;0.60;0.60;;;8.70;99.90;;;;;;5039674;28;20273;-81
2023/02/23 08:56:35;;;;;;;3.25;3.13;;;8.70;99.90;;;;;;5039970;28;20267;-81
2023/02/23 08:59:02;;;;;;;0.50;0.40;;;8.80;99.90;;;;;;5040562;28;20191;-80
2023/02/23 09:01:29;;;;;;;0.50;0.40;;;8.80;99.90;;;;;;5041927;28;20219;-82
2023/02/23 09:03:56;;;;;;;4.05;1.25;;;8.90;99.90;;;;;;5044586;28;20195;-77
2023/02/23 09:06:25;;;;;;;23.30;6.75;;;8.90;99.90;;;;;;5043563;28;20226;-80
2023/02/23 09:08:52;;;;;;;11.98;5.25;;;9.00;99.90;;;;;;5044180;28;20278;-81
2023/02/23 09:11:20;;;;;;;0.50;0.40;;;9.00;99.90;;;;;;5043301;28;20239;-80
2023/02/23 09:13:47;;;;;;;0.50;0.40;;;9.10;99.90;;;;;;5042174;28;20198;-79
2023/02/23 09:16:14;;;;;;;2.00;1.90;;;9.10;99.90;;;;;;5042800;28;20195;-81
2023/02/23 09:18:42;;;;;;;2.45;1.15;;;9.10;99.90;;;;;;5043986;28;20226;-81
2023/02/23 09:21:17;;;;;;;1.38;1.27;;;9.20;99.90;;;;;;5043231;28;20254;-80
2023/02/23 09:23:44;;;;;;;0.50;0.40;;;9.40;99.90;;;;;;5043255;28;20258;-80
2023/02/23 09:26:11;;;;;;;1.40;1.30;;;9.50;99.90;;;;;;5041811;28;20199;-79
2023/02/23 09:28:40;;;;;;;1.15;1.15;;;9.60;99.90;;;;;;5041639;28;20574;-81
2023/02/23 09:31:09;;;;;;;2.45;2.33;;;9.60;99.90;;;;;;5042902;28;20265;-80
2023/02/23 09:33:36;;;;;;;0.50;0.40;;;9.50;99.90;;;;;;5042251;28;20207;-81
2023/02/23 09:36:06;;;;;;;0.50;0.40;;;9.40;99.90;;;;;;5042759;28;20238;-81
2023/02/23 09:38:33;;;;;;;4.75;2.05;;;9.30;99.90;;;;;;5043700;28;20195;-81
2023/02/23 09:41:00;;;;;;;7.93;4.97;;;9.40;99.90;;;;;;5043486;28;20270;-81
2023/02/23 09:43:34;;;;;;;0.50;0.40;;;9.40;99.90;;;;;;5044167;28;20267;-82
2023/02/23 09:46:12;;;;;;;1.85;1.75;;;9.40;99.90;;;;;;5043064;28;20341;-82
2023/02/23 09:48:40;;;;;;;0.50;0.40;;;9.40;99.90;;;;;;5042796;28;20199;-80
2023/02/23 09:51:15;;;;;;;1.15;1.15;;;9.40;99.90;;;;;;5042925;28;20247;-82
2023/02/23 09:53:45;;;;;;;0.80;0.80;;;9.40;99.90;;;;;;5042874;28;20259;-79
2023/02/23 09:56:18;;;;;;;5.18;1.55;;;9.50;99.90;;;;;;5043462;28;20257;-81
2023/02/23 09:58:45;;;;;;;0.75;0.60;;;9.50;99.90;;;;;;5041227;28;20262;-80
2023/02/23 10:01:57;;;;;;;0.85;0.60;;;9.60;99.90;;;;;;5043426;28;20247;-79
2023/02/23 10:04:28;;;;;;;0.65;0.50;;;9.50;99.90;;;;;;5029632;28;20194;-80
2023/02/23 10:07:00;;;;;;;0.50;0.40;;;9.50;99.90;;;;;;5040177;28;20292;-81
2023/02/23 10:09:42;;;;;;;0.50;0.40;;;9.50;99.90;;;;;;5040225;28;20218;-80
2023/02/23 10:12:14;;;;;;;2.58;2.47;;;9.50;99.90;;;;;;5042619;28;20219;-81
2023/02/23 10:15:05;;;;;;;5.20;2.05;;;9.40;99.90;;;;;;5049825;28;20215;-81
2023/02/23 10:17:39;;;;;;;2.67;2.58;;;9.30;99.90;;;;;;5050676;28;20187;-82
2023/02/23 10:20:20;;;;;;;1.67;1.58;;;9.20;99.90;;;;;;5047003;28;20182;-79
2023/02/23 10:22:49;;;;;;;0.50;0.40;;;9.20;99.90;;;;;;5045287;28;20195;-78
2023/02/23 10:25:21;;;;;;;4.10;3.00;;;9.10;99.90;;;;;;5042256;28;20223;-78
2023/02/23 10:27:50;;;;;;;1.05;1.05;;;9.10;99.90;;;;;;5041567;28;20199;-79
2023/02/23 10:30:21;;;;;;;1.40;1.30;;;9.10;99.90;;;;;;5038898;28;20215;-79
2023/02/23 10:32:54;;;;;;;6.72;3.38;;;9.00;99.90;;;;;;5043194;28;20192;-81
2023/02/23 10:35:23;;;;;;;0.60;0.40;;;9.10;99.90;;;;;;5044570;28;20275;-79
2023/02/23 10:37:53;;;;;;;0.50;0.40;;;9.10;99.90;;;;;;5044607;28;20254;-81
2023/02/23 10:40:22;;;;;;;0.60;0.40;;;9.10;99.90;;;;;;5035546;28;20215;-79
2023/02/23 10:42:49;;;;;;;0.57;0.55;;;9.20;99.90;;;;;;5044955;28;20200;-80
2023/02/23 10:45:22;;;;;;;1.98;0.80;;;9.20;99.90;;;;;;5040400;28;20195;-80
2023/02/23 10:47:53;;;;;;;1.77;1.67;;;9.20;99.90;;;;;;5041530;28;20670;-81
2023/02/23 10:50:21;;;;;;;2.63;2.15;;;9.20;99.90;;;;;;5041724;28;20219;-80
2023/02/23 10:52:52;;;;;;;0.65;0.65;;;9.30;99.90;;;;;;5039842;28;20195;-80
2023/02/23 10:55:25;;;;;;;6.30;3.92;;;9.30;99.90;;;;;;5041275;28;20215;-79
2023/02/23 10:58:08;;;;;;;0.50;0.40;;;9.30;99.90;;;;;;5041548;28;20203;-79
2023/02/23 11:00:37;;;;;;;0.50;0.50;;;9.40;99.90;;;;;;5041603;28;20306;-82
2023/02/23 11:03:18;;;;;;;0.50;0.40;;;9.50;99.90;;;;;;5042112;28;20195;-79
2023/02/23 11:05:49;;;;;;;0.50;0.40;;;9.50;99.90;;;;;;5039127;28;20210;-81
2023/02/23 11:08:23;;;;;;;2.45;1.85;;;9.70;99.90;;;;;;5034068;28;20348;-80
2023/02/23 11:11:20;;;;;;;0.50;0.40;;;9.70;99.90;;;;;;5038542;28;20223;-79
2023/02/23 11:13:48;;;;;;;0.98;0.98;;;9.60;99.90;;;;;;5039347;28;20236;-80
2023/02/23 11:16:18;;;;;;;0.70;0.70;;;9.50;99.90;;;;;;5039753;28;20310;-78
2023/02/23 11:18:54;;;;;;;0.50;0.50;;;9.50;99.90;;;;;;5039244;28;20206;-77
2023/02/23 11:21:25;;;;;;;0.50;0.40;;;9.40;99.90;;;;;;5038552;28;20226;-81
2023/02/23 11:23:55;;;;;;;2.83;1.63;;;9.40;99.90;;;;;;5036059;28;20192;-81
2023/02/23 11:26:32;;;;;;;0.80;0.80;;;9.40;99.90;;;;;;5039420;28;20283;-80
2023/02/23 11:29:04;;;;;;;2.00;1.98;;;9.30;99.90;;;;;;5029523;28;20634;-81
2023/02/23 11:31:34;;;;;;;0.95;0.95;;;9.30;99.90;;;;;;5039540;28;20215;-78
2023/02/23 11:34:04;;;;;;;10.27;5.30;;;9.20;99.90;;;;;;5040939;28;20198;-81
2023/02/23 11:36:33;;;;;;;0.95;0.95;;;9.10;99.90;;;;;;5040067;28;20223;-79
2023/02/23 11:39:16;;;;;;;0.50;0.40;;;9.10;99.90;;;;;;5022204;28;20200;-79
2023/02/23 11:41:43;;;;;;;0.60;0.50;;;9.00;99.90;;;;;;5041151;28;20245;-78
2023/02/23 11:44:21;;;;;;;0.50;0.40;;;9.00;99.90;;;;;;5042181;28;20259;-79
2023/02/23 11:46:49;;;;;;;0.80;0.70;;;9.00;99.90;;;;;;5042846;28;20199;-80
2023/02/23 11:49:25;;;;;;;1.08;0.98;;;9.00;99.90;;;;;;5041914;28;20219;-78
2023/02/23 11:51:53;;;;;;;1.35;1.27;;;9.00;99.90;;;;;;5043153;28;20210;-81
2023/02/23 11:54:25;;;;;;;2.17;1.58;;;9.00;99.90;;;;;;5047093;28;20219;-78
2023/02/23 11:56:54;;;;;;;0.50;0.40;;;8.90;99.90;;;;;;5043427;28;20195;-79
2023/02/23 11:59:27;;;;;;;1.50;0.93;;;9.00;99.90;;;;;;5040858;28;20311;-79
2023/02/23 12:01:58;;;;;;;0.50;0.40;;;9.00;99.90;;;;;;5039104;28;20238;-77
2023/02/23 12:04:30;;;;;;;13.45;6.28;;;9.10;99.90;;;;;;5042158;28;20233;-78
2023/02/23 12:07:22;;;;;;;0.60;0.60;;;9.20;99.90;;;;;;5033939;28;20286;-81
2023/02/23 12:09:57;;;;;;;2.88;2.78;;;9.20;99.90;;;;;;5042759;28;20294;-79
2023/02/23 12:12:26;;;;;;;1.13;1.02;;;9.10;99.90;;;;;;5040945;28;20191;-77
2023/02/23 12:14:56;;;;;;;1.15;1.15;;;9.20;99.90;;;;;;5041368;28;20284;-80
2023/02/23 12:17:27;;;;;;;7.85;1.02;;;9.20;99.90;;;;;;5041112;28;20718;-81
2023/02/23 12:20:02;;;;;;;2.00;1.90;;;9.20;99.90;;;;;;5041310;28;20226;-78
2023/02/23 12:22:35;;;;;;;0.50;0.40;;;9.20;99.90;;;;;;5042457;28;20203;-79
2023/02/23 12:25:04;;;;;;;2.58;1.52;;;9.20;99.90;;;;;;5041851;28;20246;-79
2023/02/23 12:27:40;;;;;;;5.10;2.05;;;9.20;99.90;;;;;;5040484;28;20230;-78
2023/02/23 12:30:15;;;;;;;2.08;1.98;;;9.20;99.90;;;;;;5042479;28;20197;-79
2023/02/23 12:32:47;;;;;;;0.68;0.68;;;9.20;99.90;;;;;;5041355;28;20233;-80
2023/02/23 12:35:21;;;;;;;0.70;0.70;;;9.30;99.90;;;;;;5042430;28;20259;-79
2023/02/23 12:37:51;;;;;;;5.20;3.13;;;9.20;99.90;;;;;;5046309;28;20219;-78
2023/02/23 12:40:22;;;;;;;0.60;0.60;;;9.20;99.90;;;;;;5048043;28;20252;-79
2023/02/23 12:43:00;;;;;;;3.53;3.42;;;9.20;99.90;;;;;;5047572;28;20260;-80
2023/02/23 12:45:34;;;;;;;0.50;0.40;;;9.10;99.90;;;;;;5047108;28;20266;-78
2023/02/23 12:48:08;;;;;;;0.50;0.40;;;9.10;99.90;;;;;;5047219;28;20194;-79
2023/02/23 12:50:42;;;;;;;4.47;1.35;;;9.10;99.90;;;;;;5046435;28;20257;-79
2023/02/23 12:53:19;;;;;;;0.77;0.77;;;9.10;99.90;;;;;;5031759;28;20658;-78
2023/02/23 12:55:58;;;;;;;0.50;0.40;;;9.20;99.90;;;;;;5046333;28;20270;-79
2023/02/23 12:58:34;;;;;;;0.50;0.40;;;9.10;99.90;;;;;;5046372;28;20230;-79
2023/02/23 13:01:05;;;;;;;0.50;0.40;;;9.20;99.90;;;;;;5048248;28;20264;-78
2023/02/23 13:04:04;;;;;;;0.70;0.70;;;9.20;99.90;;;;;;5047679;28;20203;-77
2023/02/23 13:06:42;;;;;;;4.40;2.15;;;9.30;99.90;;;;;;5048716;28;20262;-79
2023/02/23 13:09:21;;;;;;;1.77;1.67;;;9.40;99.90;;;;;;5045873;28;20226;-78
2023/02/23 13:12:12;;;;;;;0.68;0.68;;;9.50;99.90;;;;;;5042345;28;20277;-80
2023/02/23 13:14:46;;;;;;;2.85;1.85;;;9.60;99.90;;;;;;5041589;28;20278;-78
2023/02/23 13:17:27;;;;;;;2.22;2.13;;;9.50;99.90;;;;;;5028588;28;20195;-80
2023/02/23 13:20:01;;;;;;;0.90;0.65;;;9.50;99.90;;;;;;5042560;28;20218;-80
2023/02/23 13:22:35;;;;;;;0.50;0.40;;;9.40;99.90;;;;;;5042843;28;20225;-80
2023/02/23 13:25:07;;;;;;;3.20;1.73;;;9.40;99.90;;;;;;5042610;28;20209;-79
2023/02/23 13:27:37;;;;;;;1.25;1.15;;;9.40;99.90;;;;;;5045948;28;20286;-79
2023/02/23 13:30:09;;;;;;;0.80;0.80;;;9.40;99.90;;;;;;5048049;28;20215;-79
2023/02/23 13:32:38;;;;;;;11.73;0.98;;;9.30;99.90;;;;;;5043510;28;20199;-80
2023/02/23 13:35:07;;;;;;;1.60;1.50;;;9.30;99.90;;;;;;5043320;28;20195;-81
2023/02/23 13:37:42;;;;;;;3.38;1.73;;;9.30;99.90;;;;;;5043446;28;20282;-80
2023/02/23 13:40:22;;;;;;;0.50;0.40;;;9.30;99.90;;;;;;5043864;28;20195;-78
2023/02/23 13:42:59;;;;;;;4.65;2.40;;;9.40;99.90;;;;;;5045729;28;20230;-77
2023/02/23 13:45:42;;;;;;;0.50;0.40;;;9.40;99.90;;;;;;5042736;28;20195;-80
2023/02/23 13:48:20;;;;;;;0.50;0.40;;;9.30;99.90;;;;;;5025317;28;20202;-82
2023/02/23 13:50:53;;;;;;;2.25;1.75;;;9.20;99.90;;;;;;5042052;28;20237;-79
2023/02/23 13:53:38;;;;;;;2.75;1.30;;;9.20;99.90;;;;;;5040819;28;20207;-79
2023/02/23 13:56:08;;;;;;;0.50;0.40;;;9.30;99.90;;;;;;5041330;28;20233;-80
2023/02/23 13:58:36;;;;;;;0.50;0.40;;;9.20;99.90;;;;;;5042186;28;20207;-81
2023/02/23 14:01:11;;;;;;;2.10;1.58;;;9.30;99.90;;;;;;5041583;28;20309;-82
2023/02/23 14:03:46;;;;;;;2.65;2.45;;;9.40;99.90;;;;;;5041413;28;20198;-81
2023/02/23 14:06:15;;;;;;;2.30;1.40;;;9.40;99.90;;;;;;5041019;28;20199;-82
2023/02/23 14:08:46;;;;;;;0.70;0.70;;;9.40;99.90;;;;;;5043048;28;20282;-80
2023/02/23 14:11:30;;;;;;;0.50;0.43;;;9.50;99.90;;;;;;5026659;28;20317;-82
2023/02/23 14:14:01;;;;;;;0.50;0.50;;;9.60;99.90;;;;;;5041135;28;20266;-80
2023/02/23 14:16:29;;;;;;;0.50;0.40;;;9.60;99.90;;;;;;5041082;28;20294;-82
2023/02/23 14:19:14;;;;;;;6.07;1.80;;;9.70;99.90;;;;;;5040507;28;20611;-83
2023/02/23 14:21:49;;;;;;;0.50;0.40;;;9.70;99.90;;;;;;5033525;28;20223;-81
2023/02/23 14:24:20;;;;;;;2.35;1.35;;;9.70;99.90;;;;;;5038472;28;20196;-82
2023/02/23 14:27:25;;;;;;;0.50;0.40;;;9.70;99.90;;;;;;5038508;28;20250;-83
2023/02/23 14:30:24;;;;;;;0.50;0.40;;;9.60;99.90;;;;;;5040230;28;20205;-78
2023/02/23 14:32:52;;;;;;;0.50;0.40;;;9.50;99.90;;;;;;5023574;28;20219;-80
2023/02/23 14:35:43;;;;;;;1.17;1.17;;;9.50;99.90;;;;;;5019764;28;20195;-80
2023/02/23 14:38:17;;;;;;;0.50;0.40;;;9.40;99.90;;;;;;5023388;28;20201;-79